createdAt,value
2022-08-24T00:01:38.600Z,69.13
2022-08-24T00:04:07.145Z,68.66
2022-08-24T00:06:35.333Z,67.79
2022-08-24T00:09:02.800Z,68.99
2022-08-24T00:11:31.276Z,67.85
2022-08-24T00:13:59.049Z,68.69
2022-08-24T00:16:27.168Z,67.84
2022-08-24T00:18:56.188Z,67.86
2022-08-24T00:21:24.113Z,67.48
2022-08-24T00:23:51.569Z,67.58
2022-08-24T00:26:28.853Z,68.69
2022-08-24T00:28:57.284Z,67.65
2022-08-24T00:31:25.585Z,67.24
2022-08-24T00:33:52.994Z,67.97
2022-08-24T00:36:22.002Z,67.44
2022-08-24T00:38:50.620Z,67.97
2022-08-24T00:41:18.360Z,67.65
2022-08-24T00:43:54.628Z,67.65
2022-08-24T00:46:28.903Z,67.59
2022-08-24T00:48:59.839Z,69.23
2022-08-24T00:51:30.453Z,69.21
2022-08-24T00:54:02.292Z,69.96
2022-08-24T00:56:33.553Z,69.14
2022-08-24T00:59:02.895Z,70.27
2022-08-24T01:01:32.235Z,70.69
2022-08-24T01:04:00.144Z,70.64
2022-08-24T01:06:27.930Z,69.64
2022-08-24T01:08:59.596Z,70.03
2022-08-24T01:11:30.901Z,69.14
2022-08-24T01:14:02.707Z,69.72
2022-08-24T01:16:48.967Z,70.51
2022-08-24T01:19:28.363Z,71.16
2022-08-24T01:22:16.090Z,70.87
2022-08-24T01:24:44.396Z,69.47
2022-08-24T01:27:15.714Z,69.40
2022-08-24T01:29:45.621Z,69.25
2022-08-24T01:32:14.503Z,69.21
2022-08-24T01:34:42.089Z,68.94
2022-08-24T01:37:10.789Z,69.06
2022-08-24T01:39:44.516Z,68.75
2022-08-24T01:42:16.528Z,69.27
2022-08-24T01:44:45.401Z,68.84
2022-08-24T01:47:13.718Z,69.19
2022-08-24T01:49:43.582Z,68.55
2022-08-24T01:52:12.903Z,69.16
2022-08-24T01:54:43.339Z,69.42
2022-08-24T01:57:16.323Z,68.82
2022-08-24T01:59:45.569Z,68.39
2022-08-24T02:02:16.407Z,68.97
2022-08-24T02:04:44.953Z,67.77
2022-08-24T02:07:15.958Z,68.54
2022-08-24T02:09:44.256Z,68.96
2022-08-24T02:12:13.803Z,68.63
2022-08-24T02:14:41.560Z,69.23
2022-08-24T02:17:10.024Z,68.79
2022-08-24T02:19:38.263Z,69.45
2022-08-24T02:22:07.000Z,69.03
2022-08-24T02:24:36.862Z,69.51
2022-08-24T02:27:05.649Z,68.45
2022-08-24T02:29:33.670Z,68.46
2022-08-24T02:32:01.583Z,68.34
2022-08-24T02:34:30.105Z,68.37
2022-08-24T02:36:57.966Z,67.50
2022-08-24T02:39:29.333Z,69.00
2022-08-24T02:41:57.349Z,68.34
2022-08-24T02:44:25.256Z,69.03
2022-08-24T02:46:54.236Z,68.81
2022-08-24T02:49:23.272Z,68.31
2022-08-24T02:51:51.013Z,68.16
2022-08-24T02:54:18.865Z,68.47
2022-08-24T02:56:47.230Z,69.05
2022-08-24T02:59:17.588Z,67.81
2022-08-24T03:01:45.766Z,69.54
2022-08-24T03:04:15.284Z,69.35
2022-08-24T03:06:44.093Z,68.72
2022-08-24T03:09:13.760Z,69.81
2022-08-24T03:11:44.304Z,69.24
2022-08-24T03:14:13.277Z,70.65
2022-08-24T03:16:42.007Z,69.68
2022-08-24T03:19:09.615Z,70.32
2022-08-24T03:21:37.349Z,70.98
2022-08-24T03:24:05.604Z,71.00
2022-08-24T03:26:34.063Z,70.50
2022-08-24T03:29:02.052Z,70.52
2022-08-24T03:31:31.637Z,69.73
2022-08-24T03:33:59.477Z,69.77
2022-08-24T03:36:27.941Z,70.11
2022-08-24T03:38:56.712Z,70.37
2022-08-24T03:41:24.174Z,71.09
2022-08-24T03:43:56.036Z,70.50
2022-08-24T03:46:26.490Z,70.92
2022-08-24T03:48:55.045Z,70.71
2022-08-24T03:51:23.927Z,70.17
2022-08-24T03:53:52.126Z,70.32
2022-08-24T03:56:21.002Z,70.93
2022-08-24T03:58:49.229Z,69.64
2022-08-24T04:01:18.648Z,69.43
2022-08-24T04:03:49.212Z,71.59
2022-08-24T04:06:18.096Z,70.84
2022-08-24T04:08:47.940Z,70.79
2022-08-24T04:11:17.959Z,70.36
2022-08-24T04:13:50.905Z,69.96
2022-08-24T04:16:21.022Z,69.35
2022-08-24T04:18:50.519Z,69.52
2022-08-24T04:21:20.939Z,69.59
2022-08-24T04:23:50.343Z,69.65
2022-08-24T04:26:32.395Z,68.89
2022-08-24T04:29:09.550Z,69.06
2022-08-24T04:31:42.056Z,68.68
2022-08-24T04:34:11.489Z,68.59
2022-08-24T04:36:42.349Z,69.19
2022-08-24T04:39:10.092Z,69.25
2022-08-24T04:41:40.799Z,71.28
2022-08-24T04:44:14.811Z,69.25
2022-08-24T04:46:44.757Z,68.93
2022-08-24T04:49:12.747Z,68.54
2022-08-24T04:51:40.753Z,70.08
2022-08-24T04:54:09.269Z,70.58
2022-08-24T04:56:40.072Z,69.28
2022-08-24T04:59:08.674Z,68.90
2022-08-24T05:01:37.862Z,68.64
2022-08-24T05:04:05.975Z,69.97
2022-08-24T05:06:34.701Z,69.64
2022-08-24T05:09:04.641Z,68.91
2022-08-24T05:11:33.113Z,69.71
2022-08-24T05:14:04.056Z,69.39
2022-08-24T05:16:52.828Z,68.79
2022-08-24T05:19:21.823Z,68.98
2022-08-24T05:21:49.365Z,69.04
2022-08-24T05:24:17.275Z,68.04
2022-08-24T05:26:46.131Z,67.76
2022-08-24T05:29:19.289Z,67.18
2022-08-24T05:31:48.751Z,66.97
2022-08-24T05:34:17.322Z,67.53
2022-08-24T05:36:50.065Z,67.14
2022-08-24T05:39:21.195Z,67.70
2022-08-24T05:41:51.846Z,68.02
2022-08-24T05:44:29.122Z,68.39
2022-08-24T05:47:01.265Z,67.89
2022-08-24T05:49:33.224Z,67.19
2022-08-24T05:54:35.473Z,66.40
2022-08-24T05:57:06.592Z,67.10
2022-08-24T05:59:35.125Z,65.44
2022-08-24T06:02:03.931Z,64.54
2022-08-24T06:04:33.169Z,66.18
2022-08-24T06:07:00.567Z,65.11
2022-08-24T06:09:29.665Z,64.64
2022-08-24T06:12:00.685Z,64.80
2022-08-24T06:14:30.990Z,63.93
2022-08-24T06:17:03.914Z,62.87
2022-08-24T06:19:33.115Z,63.72
2022-08-24T06:22:03.069Z,62.89
2022-08-24T06:24:50.330Z,62.39
2022-08-24T06:27:23.785Z,61.94
2022-08-24T06:29:58.916Z,63.44
2022-08-24T06:32:33.049Z,62.48
2022-08-24T06:37:46.760Z,61.31
2022-08-24T06:40:20.397Z,62.00
2022-08-24T06:42:48.672Z,62.59
2022-08-24T06:45:17.480Z,62.18
2022-08-24T06:47:48.719Z,62.70
2022-08-24T06:52:51.912Z,60.83
2022-08-24T06:55:19.924Z,61.44
2022-08-24T06:57:55.786Z,60.64
2022-08-24T07:00:25.382Z,60.73
2022-08-24T07:02:54.034Z,60.83
2022-08-24T07:05:24.906Z,60.83
2022-08-24T07:07:59.513Z,59.97
2022-08-24T07:10:28.971Z,60.74
2022-08-24T07:13:03.812Z,60.58
2022-08-24T07:15:32.223Z,58.67
2022-08-24T07:18:02.887Z,57.32
2022-08-24T07:20:33.088Z,58.38
2022-08-24T07:23:13.062Z,58.55
2022-08-24T07:25:47.659Z,59.11
2022-08-24T07:28:27.811Z,59.23
2022-08-24T07:31:01.972Z,59.19
2022-08-24T07:38:53.024Z,58.48
2022-08-24T07:44:17.532Z,57.41
2022-08-24T07:46:46.337Z,57.32
2022-08-24T07:49:33.123Z,55.96
2022-08-24T07:54:41.914Z,52.41
2022-08-24T07:57:11.419Z,53.30
2022-08-24T07:59:41.731Z,52.70
2022-08-24T08:04:53.691Z,51.80
2022-08-24T08:07:22.771Z,51.78
2022-08-24T08:09:51.174Z,52.22
2022-08-24T08:12:20.957Z,52.12
2022-08-24T08:14:51.856Z,52.95
2022-08-24T08:17:22.836Z,51.71
2022-08-24T08:19:51.848Z,51.55
2022-08-24T08:22:40.862Z,53.45
2022-08-24T08:25:13.821Z,51.84
2022-08-24T08:30:17.776Z,51.25
2022-08-24T08:32:46.554Z,51.64
2022-08-24T08:35:16.217Z,50.34
2022-08-24T08:37:51.792Z,52.16
2022-08-24T08:40:25.684Z,51.46
2022-08-24T08:42:59.958Z,50.65
2022-08-24T08:45:32.166Z,52.21
2022-08-24T08:48:26.575Z,51.10
2022-08-24T08:51:32.029Z,51.16
2022-08-24T08:54:18.065Z,50.77
2022-08-24T08:57:23.731Z,50.90
2022-08-24T08:59:55.769Z,49.91
2022-08-24T09:02:43.920Z,51.12
2022-08-24T09:05:12.193Z,51.00
2022-08-24T09:07:44.962Z,51.38
2022-08-24T09:10:35.758Z,51.65
2022-08-24T09:13:04.779Z,53.17
2022-08-24T09:15:44.087Z,49.11
2022-08-24T09:18:19.191Z,51.01
2022-08-24T09:21:10.793Z,48.70
2022-08-24T09:24:01.583Z,47.89
2022-08-24T09:26:33.791Z,49.15
2022-08-24T09:29:15.296Z,48.22
2022-08-24T09:32:00.769Z,47.37
2022-08-24T09:34:28.387Z,47.07
2022-08-24T09:37:21.296Z,44.00
2022-08-24T09:40:21.586Z,44.32
2022-08-24T09:42:50.801Z,44.90
2022-08-24T09:45:31.740Z,47.77
2022-08-24T09:48:15.854Z,42.83
2022-08-24T09:50:54.846Z,43.23
2022-08-24T09:53:39.791Z,43.86
2022-08-24T09:56:24.758Z,43.37
2022-08-24T09:59:05.979Z,43.05
2022-08-24T10:01:36.944Z,44.78
2022-08-24T10:04:18.377Z,44.48
2022-08-24T10:06:46.977Z,43.64
2022-08-24T10:09:27.765Z,43.11
2022-08-24T10:12:01.955Z,42.69
2022-08-24T10:14:36.247Z,42.82
2022-08-24T10:17:06.103Z,42.45
2022-08-24T10:19:41.101Z,42.12
2022-08-24T10:22:14.362Z,43.22
2022-08-24T10:24:50.876Z,43.57
2022-08-24T10:27:22.129Z,44.80
2022-08-24T10:30:05.837Z,45.02
2022-08-24T10:32:35.146Z,45.09
2022-08-24T10:38:30.780Z,43.64
2022-08-24T10:41:02.101Z,44.09
2022-08-24T10:43:53.811Z,44.27
2022-08-24T10:46:45.889Z,45.31
2022-08-24T10:49:22.968Z,46.04
2022-08-24T10:52:10.227Z,45.86
2022-08-24T10:54:39.783Z,45.02
2022-08-24T10:57:16.524Z,47.05
2022-08-24T10:59:56.362Z,46.20
2022-08-24T11:02:35.259Z,44.50
2022-08-24T11:05:06.097Z,45.39
2022-08-24T11:07:35.740Z,45.46
2022-08-24T11:10:08.610Z,46.23
2022-08-24T11:12:43.769Z,46.00
2022-08-24T11:15:19.822Z,45.98
2022-08-24T11:17:58.771Z,45.20
2022-08-24T11:20:34.985Z,45.26
2022-08-24T11:23:05.269Z,50.20
2022-08-24T11:25:40.350Z,51.11
2022-08-24T11:28:31.827Z,51.03
2022-08-24T11:31:04.991Z,56.19
2022-08-24T11:33:45.204Z,53.37
2022-08-24T11:36:24.109Z,53.47
2022-08-24T11:39:13.342Z,54.94
2022-08-24T11:41:47.463Z,56.93
2022-08-24T11:44:31.843Z,57.07
2022-08-24T11:47:09.828Z,56.53
2022-08-24T11:49:53.758Z,58.20
2022-08-24T11:52:24.921Z,57.17
2022-08-24T11:55:19.839Z,57.89
2022-08-24T11:57:53.692Z,58.45
2022-08-24T12:00:28.743Z,57.34
2022-08-24T12:03:03.970Z,57.38
2022-08-24T12:05:39.814Z,58.65
2022-08-24T12:08:25.704Z,59.05
2022-08-24T12:11:23.763Z,57.88
2022-08-24T12:16:52.876Z,60.86
2022-08-24T12:19:31.540Z,61.62
2022-08-24T12:22:00.980Z,61.52
2022-08-24T12:24:33.352Z,61.47
2022-08-24T12:27:09.816Z,62.35
2022-08-24T12:29:45.916Z,64.22
2022-08-24T12:34:58.388Z,66.89
2022-08-24T12:37:44.942Z,67.26
2022-08-24T12:40:30.578Z,68.20
2022-08-24T12:43:11.647Z,67.18
2022-08-24T12:45:43.167Z,68.29
2022-08-24T12:48:21.021Z,67.55
2022-08-24T12:51:09.869Z,67.78
2022-08-24T12:54:02.702Z,67.23
2022-08-24T12:56:33.734Z,68.91
2022-08-24T12:59:09.348Z,68.48
2022-08-24T13:01:38.763Z,68.13
2022-08-24T13:04:06.921Z,67.93
2022-08-24T13:06:39.222Z,66.89
2022-08-24T13:09:26.539Z,67.73
2022-08-24T13:12:03.822Z,67.60
2022-08-24T13:14:40.865Z,67.74
2022-08-24T13:17:10.894Z,67.32
2022-08-24T13:19:50.886Z,67.99
2022-08-24T13:22:30.211Z,69.29
2022-08-24T13:25:03.823Z,69.23
2022-08-24T13:27:36.915Z,69.35
2022-08-24T13:30:22.021Z,68.94
2022-08-24T13:32:56.567Z,68.53
2022-08-24T13:35:44.197Z,68.48
2022-08-24T13:38:37.351Z,68.38
2022-08-24T13:41:10.009Z,67.75
2022-08-24T13:43:42.359Z,66.84
2022-08-24T13:46:25.083Z,66.69
2022-08-24T13:49:17.883Z,66.50
2022-08-24T13:51:52.778Z,66.75
2022-08-24T13:54:27.837Z,67.91
2022-08-24T13:57:13.991Z,67.36
2022-08-24T13:59:56.736Z,67.06
2022-08-24T14:02:35.001Z,68.60
2022-08-24T14:05:25.683Z,69.30
2022-08-24T14:07:55.831Z,68.67
2022-08-24T14:10:35.704Z,68.64
2022-08-24T14:13:22.175Z,68.61
2022-08-24T14:16:19.847Z,68.37
2022-08-24T14:18:52.809Z,68.10
2022-08-24T14:21:29.794Z,67.98
2022-08-24T14:24:11.123Z,67.67
2022-08-24T14:26:42.765Z,68.14
2022-08-24T14:29:19.974Z,68.07
2022-08-24T14:31:58.567Z,68.95
2022-08-24T14:34:49.888Z,68.05
2022-08-24T14:37:51.338Z,68.34
2022-08-24T14:40:24.463Z,68.73
2022-08-24T14:43:08.729Z,68.01
2022-08-24T14:45:41.222Z,68.46
2022-08-24T14:48:17.416Z,68.20
2022-08-24T14:50:50.822Z,68.01
2022-08-24T14:53:39.001Z,67.91
2022-08-24T14:56:25.044Z,67.21
2022-08-24T14:59:14.766Z,67.42
2022-08-24T15:01:49.979Z,67.16
2022-08-24T15:04:36.210Z,66.46
2022-08-24T15:07:28.228Z,66.79
2022-08-24T15:10:01.822Z,66.17
2022-08-24T15:12:32.965Z,66.26
2022-08-24T15:15:10.033Z,65.94
2022-08-24T15:17:50.180Z,65.91
2022-08-24T15:20:22.808Z,65.79
2022-08-24T15:23:26.239Z,65.83
2022-08-24T15:26:03.002Z,65.30
2022-08-24T15:28:35.981Z,65.65
2022-08-24T15:31:10.985Z,66.11
2022-08-24T15:33:57.901Z,65.98
2022-08-24T15:36:28.479Z,65.91
2022-08-24T15:39:02.854Z,66.06
2022-08-24T15:41:39.537Z,66.23
2022-08-24T15:44:21.177Z,66.25
2022-08-24T15:52:09.967Z,65.58
2022-08-24T15:54:46.429Z,67.11
2022-08-24T15:57:19.207Z,67.11
2022-08-24T15:59:48.587Z,67.07
2022-08-24T16:02:28.727Z,66.97
2022-08-24T16:05:02.494Z,67.05
2022-08-24T16:07:35.535Z,66.00
2022-08-24T16:10:07.700Z,65.51
2022-08-24T16:12:56.209Z,65.00
2022-08-24T16:15:36.992Z,65.52
2022-08-24T16:18:12.810Z,66.34
2022-08-24T16:20:51.270Z,66.58
2022-08-24T16:23:24.965Z,65.26
2022-08-24T16:26:17.008Z,65.88
2022-08-24T16:28:53.603Z,65.80
2022-08-24T16:31:47.027Z,65.31
2022-08-24T16:34:16.065Z,65.20
2022-08-24T16:36:47.943Z,65.77
2022-08-24T16:42:06.940Z,66.51
2022-08-24T16:44:46.972Z,66.63
2022-08-24T16:47:24.921Z,66.89
2022-08-24T16:49:53.253Z,67.68
2022-08-24T16:52:28.940Z,67.69
2022-08-24T16:55:10.863Z,67.34
2022-08-24T16:57:50.211Z,66.50
2022-08-24T17:00:34.372Z,66.27
2022-08-24T17:03:28.002Z,66.39
2022-08-24T17:06:31.207Z,66.15
2022-08-24T17:12:05.942Z,66.07
2022-08-24T17:14:46.404Z,66.40
2022-08-24T17:20:57.877Z,66.18
2022-08-24T17:23:42.232Z,65.93
2022-08-24T17:31:50.125Z,66.76
2022-08-24T17:34:37.983Z,66.60
2022-08-24T17:37:36.120Z,66.28
2022-08-24T17:40:21.088Z,66.24
2022-08-24T17:43:34.081Z,66.58
2022-08-24T17:46:25.988Z,66.63
2022-08-24T17:49:15.078Z,67.13
2022-08-24T17:52:04.338Z,67.13
2022-08-24T17:54:57.010Z,66.67
2022-08-24T17:57:36.947Z,66.96
2022-08-24T18:00:36.587Z,66.63
2022-08-24T18:03:21.190Z,66.25
2022-08-24T18:09:04.022Z,66.73
2022-08-24T18:11:46.249Z,67.67
2022-08-24T18:14:21.866Z,68.58
2022-08-24T18:19:33.166Z,67.66
2022-08-24T18:22:09.264Z,67.40
2022-08-24T18:24:46.217Z,67.48
2022-08-24T18:27:30.806Z,67.78
2022-08-24T18:32:43.914Z,67.75
2022-08-24T18:35:16.053Z,67.59
2022-08-24T18:37:46.639Z,67.16
2022-08-24T18:40:33.382Z,67.18
2022-08-24T18:43:18.050Z,67.43
2022-08-24T18:46:01.938Z,67.69
2022-08-24T18:48:42.067Z,67.15
2022-08-24T18:51:23.862Z,67.54
2022-08-24T18:54:15.109Z,67.59
2022-08-24T18:56:59.040Z,67.26
2022-08-24T19:15:51.949Z,66.95
2022-08-24T19:18:24.123Z,67.41
2022-08-24T19:23:49.030Z,67.16
2022-08-24T19:26:35.802Z,66.77
2022-08-24T19:29:09.858Z,67.00
2022-08-24T19:34:16.895Z,66.51
2022-08-24T19:36:58.055Z,66.73
2022-08-24T19:39:35.496Z,67.24
2022-08-24T19:42:18.073Z,66.73
2022-08-24T19:47:39.991Z,66.38
2022-08-24T19:50:23.400Z,66.27
2022-08-24T19:52:54.978Z,66.56
2022-08-24T19:55:30.151Z,66.45
2022-08-24T19:58:15.185Z,67.02
2022-08-24T20:00:53.919Z,67.35
2022-08-24T20:03:24.881Z,66.81
2022-08-24T20:05:59.358Z,66.78
2022-08-24T20:08:33.968Z,66.80
2022-08-24T20:11:15.319Z,66.40
2022-08-24T20:13:57.082Z,66.41
2022-08-24T20:16:45.945Z,66.54
2022-08-24T20:19:16.957Z,66.53
2022-08-24T20:24:25.997Z,66.00
2022-08-24T20:27:00.911Z,66.80
2022-08-24T20:29:29.080Z,66.80
2022-08-24T20:32:05.989Z,67.76
2022-08-24T20:34:34.921Z,66.96
2022-08-24T20:37:04.978Z,67.37
2022-08-24T20:39:37.970Z,66.71
2022-08-24T20:42:14.893Z,66.91
2022-08-24T20:44:45.261Z,66.63
2022-08-24T20:47:14.128Z,66.88
2022-08-24T20:49:43.247Z,67.50
2022-08-24T20:52:12.019Z,66.84
2022-08-24T20:54:51.479Z,66.66
2022-08-24T20:57:23.173Z,66.44
2022-08-24T20:59:56.972Z,66.27
2022-08-24T21:02:31.094Z,66.50
2022-08-24T21:04:58.899Z,66.34
2022-08-24T21:07:27.198Z,66.39
2022-08-24T21:09:55.277Z,66.33
2022-08-24T21:12:27.445Z,66.42
2022-08-24T21:14:59.908Z,66.41
2022-08-24T21:17:28.180Z,66.15
2022-08-24T21:19:57.631Z,66.00
2022-08-24T21:22:28.110Z,66.25
2022-08-24T21:24:59.530Z,66.26
2022-08-24T21:27:27.193Z,66.29
2022-08-24T21:29:54.744Z,66.28
2022-08-24T21:32:42.354Z,66.07
2022-08-24T21:35:09.910Z,66.19
2022-08-24T21:37:43.290Z,66.21
2022-08-24T21:40:11.121Z,66.44
2022-08-24T21:42:39.277Z,66.60
2022-08-24T21:45:08.869Z,66.17
2022-08-24T21:47:37.251Z,66.20
2022-08-24T21:50:05.597Z,66.44
2022-08-24T21:52:34.112Z,66.05
2022-08-24T21:55:01.892Z,66.14
2022-08-24T21:57:30.973Z,66.72
2022-08-24T21:59:58.884Z,66.42
2022-08-24T22:02:26.487Z,66.71
2022-08-24T22:04:56.886Z,66.57
2022-08-24T22:07:24.666Z,67.60
2022-08-24T22:09:52.330Z,68.00
2022-08-24T22:12:20.295Z,67.41
2022-08-24T22:14:47.776Z,67.27
2022-08-24T22:17:17.353Z,67.09
2022-08-24T22:19:45.134Z,67.21
2022-08-24T22:22:13.088Z,66.83
2022-08-24T22:24:40.551Z,66.90
2022-08-24T22:27:08.200Z,67.43
2022-08-24T22:29:35.904Z,67.93
2022-08-24T22:32:03.998Z,68.01
2022-08-24T22:34:32.020Z,68.09
2022-08-24T22:37:01.658Z,67.77
2022-08-24T22:39:29.132Z,67.75
2022-08-24T22:41:57.981Z,67.47
2022-08-24T22:44:27.683Z,67.56
2022-08-24T22:46:56.336Z,66.66
2022-08-24T22:49:26.071Z,67.32
2022-08-24T22:51:53.707Z,68.05
2022-08-24T22:54:23.727Z,68.16
2022-08-24T22:56:52.826Z,67.09
2022-08-24T22:59:25.176Z,68.37
2022-08-24T23:01:54.038Z,67.94
2022-08-24T23:04:27.085Z,69.02
2022-08-24T23:06:55.551Z,68.04
2022-08-24T23:09:24.569Z,67.72
2022-08-24T23:11:52.723Z,68.25
2022-08-24T23:14:22.662Z,68.34
2022-08-24T23:16:51.043Z,68.25
2022-08-24T23:19:43.076Z,68.12
2022-08-24T23:22:13.205Z,68.09
2022-08-24T23:24:42.953Z,67.85
2022-08-24T23:27:11.653Z,67.38
2022-08-24T23:29:39.765Z,67.47
2022-08-24T23:32:08.105Z,67.59
2022-08-24T23:34:35.689Z,67.63
2022-08-24T23:37:03.453Z,67.98
2022-08-24T23:39:32.254Z,67.58
2022-08-24T23:42:00.159Z,67.37
2022-08-24T23:44:31.900Z,67.45
2022-08-24T23:46:59.917Z,67.18
2022-08-24T23:49:27.504Z,67.01
2022-08-24T23:51:55.100Z,66.99
2022-08-24T23:54:24.399Z,67.62
2022-08-24T23:56:52.808Z,67.20
2022-08-24T23:59:25.288Z,67.14
